Time;durP1;ratioP1;P1;durP2;ratioP2;P2;SDS_P1;SDS_P2;PMS_P1;PMS_P2;Temp;Humidity;BMP_temperature;BMP_pressure;BME280_temperature;BME280_humidity;BME280_pressure;Samples;Min_cycle;Max_cycle;Signal;HPM_P1;HPM_P2
2023/05/15 00:02:26;;;;;;;14.40;6.40;;;;;;;13.59;84.51;99836.27;110452;1271;22343;-59
2023/05/15 00:04:57;;;;;;;16.40;6.50;;;;;;;13.57;84.69;99827.49;110481;1266;22145;-59
2023/05/15 00:07:28;;;;;;;14.80;6.80;;;;;;;13.52;84.52;99822.66;110461;1274;22161;-59
2023/05/15 00:09:59;;;;;;;15.60;7.00;;;;;;;13.51;84.55;99818.52;110474;1273;22146;-58
2023/05/15 00:12:30;;;;;;;16.70;6.40;;;;;;;13.53;84.85;99806.48;110426;1267;22205;-60
2023/05/15 00:15:00;;;;;;;13.60;6.20;;;;;;;13.48;85.22;99792.83;110471;1270;22179;-58
2023/05/15 00:17:32;;;;;;;16.10;6.40;;;;;;;13.40;85.21;99794.55;110459;1267;22381;-55
2023/05/15 00:20:03;;;;;;;13.80;6.40;;;;;;;13.39;85.23;99791.34;110450;1268;22219;-58
2023/05/15 00:22:34;;;;;;;16.70;7.50;;;;;;;13.39;85.08;99782.66;110437;1267;22411;-57
2023/05/15 00:25:06;;;;;;;18.80;7.60;;;;;;;13.35;85.30;99773.61;110455;1267;22367;-56
2023/05/15 00:27:37;;;;;;;14.60;7.30;;;;;;;13.33;85.37;99771.05;110443;1271;22321;-56
2023/05/15 00:30:10;;;;;;;16.30;6.10;;;;;;;13.31;85.36;99770.34;110475;1269;22164;-57
2023/05/15 00:32:41;;;;;;;16.30;7.20;;;;;;;13.31;85.49;99773.81;110430;1272;22174;-57
2023/05/15 00:35:12;;;;;;;16.30;7.20;;;;;;;13.26;85.50;99766.46;110475;1269;22253;-56
2023/05/15 00:37:43;;;;;;;15.70;6.70;;;;;;;13.23;85.78;99753.41;110396;1267;23243;-58
2023/05/15 00:40:21;;;;;;;15.80;7.30;;;;;;;13.19;86.00;99753.20;110480;1274;23152;-55
2023/05/15 00:42:53;;;;;;;16.60;7.20;;;;;;;13.15;86.15;99746.52;108800;1265;24231;-56
2023/05/15 00:45:25;;;;;;;14.00;6.40;;;;;;;13.13;86.04;99742.81;106463;1274;22542;-57
2023/05/15 00:47:57;;;;;;;14.90;7.40;;;;;;;13.09;86.12;99739.19;106402;1260;22757;-57
2023/05/15 00:50:29;;;;;;;16.10;6.40;;;;;;;13.06;86.22;99732.86;106554;1274;22612;-56
2023/05/15 00:53:00;;;;;;;16.70;7.00;;;;;;;13.02;86.77;99723.98;108985;1272;22521;-58
2023/05/15 00:55:33;;;;;;;14.30;7.10;;;;;;;12.94;86.91;99718.71;110432;1267;23016;-56
2023/05/15 00:58:06;;;;;;;15.10;6.90;;;;;;;12.92;86.83;99719.01;110469;1274;22138;-58
2023/05/15 01:00:38;;;;;;;18.80;7.40;;;;;;;12.91;86.83;99720.25;110459;1267;22260;-56
2023/05/15 01:03:09;;;;;;;19.30;7.60;;;;;;;12.90;87.29;99719.83;110486;1263;22188;-56
2023/05/15 01:05:40;;;;;;;17.30;7.00;;;;;;;12.87;87.05;99717.52;110476;1271;22472;-58
2023/05/15 01:08:19;;;;;;;18.10;7.70;;;;;;;12.87;87.29;99724.30;110454;1271;22242;-59
2023/05/15 01:10:51;;;;;;;14.80;7.00;;;;;;;12.86;87.15;99719.57;110496;1267;22192;-59
2023/05/15 01:13:24;;;;;;;16.30;8.50;;;;;;;12.85;87.68;99711.98;110467;1274;22111;-56
2023/05/15 01:15:56;;;;;;;17.80;8.50;;;;;;;12.81;87.58;99702.51;110528;1273;22221;-58
2023/05/15 01:18:31;;;;;;;17.90;8.30;;;;;;;12.79;87.69;99696.95;110458;1267;22170;-57
2023/05/15 01:21:32;;;;;;;15.70;7.70;;;;;;;12.79;87.83;99702.19;110451;1271;22332;-58
2023/05/15 01:24:28;;;;;;;14.50;7.20;;;;;;;12.82;88.18;99701.63;110536;1267;22129;-58
2023/05/15 01:27:23;;;;;;;20.50;9.50;;;;;;;12.82;88.09;99698.94;110461;1273;22728;-57
2023/05/15 01:30:00;;;;;;;18.80;8.30;;;;;;;12.81;88.37;99699.23;110447;1271;22385;-59
2023/05/15 01:32:39;;;;;;;18.60;8.40;;;;;;;12.79;88.20;99694.76;110456;1271;22331;-57
2023/05/15 01:35:16;;;;;;;16.80;7.60;;;;;;;12.78;88.34;99686.50;110516;1270;22353;-58
2023/05/15 01:37:53;;;;;;;16.40;7.50;;;;;;;12.79;88.61;99690.63;110490;1267;22367;-58
2023/05/15 01:40:28;;;;;;;15.30;7.20;;;;;;;12.76;88.42;99694.09;110491;1272;22230;-58
2023/05/15 01:43:07;;;;;;;16.40;7.10;;;;;;;12.75;88.53;99686.55;110453;1274;22169;-59
2023/05/15 01:45:40;;;;;;;16.30;7.00;;;;;;;12.74;88.73;99687.01;110440;1267;22825;-56
2023/05/15 01:48:13;;;;;;;14.60;6.30;;;;;;;12.74;88.64;99677.80;110470;1260;22291;-58
2023/05/15 01:50:45;;;;;;;15.80;6.80;;;;;;;12.73;88.86;99675.66;110473;1268;22417;-60
2023/05/15 01:53:17;;;;;;;14.60;6.50;;;;;;;12.73;88.82;99672.19;110501;1267;22198;-60
2023/05/15 01:55:50;;;;;;;16.20;6.10;;;;;;;12.73;89.03;99667.70;110447;1267;22204;-60
2023/05/15 01:58:23;;;;;;;16.00;6.80;;;;;;;12.71;88.96;99662.51;110458;1274;22963;-59
2023/05/15 02:00:55;;;;;;;14.10;5.70;;;;;;;12.69;89.55;99656.20;110482;1267;22178;-60
2023/05/15 02:03:26;;;;;;;13.40;4.90;;;;;;;12.63;89.60;99649.83;110436;1263;22173;-59
2023/05/15 02:05:57;;;;;;;15.10;5.20;;;;;;;12.61;89.76;99645.64;110447;1270;22310;-58
2023/05/15 02:08:29;;;;;;;10.50;4.10;;;;;;;12.60;89.47;99639.33;110478;1268;22171;-56
2023/05/15 02:11:02;;;;;;;10.90;4.40;;;;;;;12.59;89.69;99635.05;110451;1267;22748;-58
2023/05/15 02:13:35;;;;;;;14.30;4.10;;;;;;;12.57;89.64;99636.06;110463;1273;22387;-58
2023/05/15 02:16:07;;;;;;;12.30;4.50;;;;;;;12.58;89.64;99635.21;110487;1274;22163;-59
2023/05/15 02:18:38;;;;;;;9.00;3.80;;;;;;;12.61;89.71;99626.86;110424;1270;22980;-58
2023/05/15 02:21:10;;;;;;;12.80;4.30;;;;;;;12.59;89.59;99621.15;107169;1267;22568;-57
2023/05/15 02:23:40;;;;;;;13.80;4.50;;;;;;;12.58;89.87;99620.85;110442;1267;22294;-58
2023/05/15 02:26:20;;;;;;;12.10;4.10;;;;;;;12.58;89.78;99612.86;110443;1267;22251;-57
2023/05/15 02:29:04;;;;;;;13.80;4.30;;;;;;;12.61;89.71;99613.46;110462;1273;23186;-58
2023/05/15 02:31:40;;;;;;;10.40;3.60;;;;;;;12.64;89.60;99608.48;110434;1267;22420;-57
2023/05/15 02:34:17;;;;;;;11.50;3.40;;;;;;;12.63;90.23;99602.52;110493;1274;22196;-56
2023/05/15 02:36:51;;;;;;;10.30;3.70;;;;;;;12.59;90.06;99596.66;110456;1267;22933;-58
2023/05/15 02:39:23;;;;;;;9.50;3.60;;;;;;;12.59;90.12;99593.71;110437;1270;22205;-56
2023/05/15 02:41:56;;;;;;;8.60;2.70;;;;;;;12.59;90.22;99587.10;110460;1270;22890;-58
2023/05/15 02:44:28;;;;;;;9.90;3.30;;;;;;;12.56;90.30;99580.98;110439;1270;22120;-58
2023/05/15 02:46:59;;;;;;;9.70;3.40;;;;;;;12.55;90.32;99577.77;110430;1267;22264;-57
2023/05/15 02:49:30;;;;;;;9.80;3.20;;;;;;;12.56;90.38;99574.67;110472;1267;22292;-58
2023/05/15 02:52:01;;;;;;;10.30;3.40;;;;;;;12.57;90.35;99569.59;110483;1274;22166;-58
2023/05/15 02:54:32;;;;;;;11.40;3.80;;;;;;;12.58;90.58;99560.27;110458;1267;22399;-59
2023/05/15 02:57:03;;;;;;;12.50;4.30;;;;;;;12.57;90.67;99557.62;110473;1269;22179;-57
2023/05/15 02:59:34;;;;;;;10.40;3.60;;;;;;;12.56;90.92;99549.84;110448;1271;22411;-58
2023/05/15 03:02:05;;;;;;;11.40;4.60;;;;;;;12.53;90.90;99544.13;110417;1267;22180;-59
2023/05/15 03:04:36;;;;;;;10.70;4.00;;;;;;;12.53;90.92;99538.42;110447;1267;22347;-59
2023/05/15 03:07:07;;;;;;;12.40;4.30;;;;;;;12.53;90.98;99534.25;110479;1274;22202;-59
2023/05/15 03:09:38;;;;;;;12.20;3.70;;;;;;;12.54;90.85;99532.27;110434;1267;23153;-57
2023/05/15 03:12:10;;;;;;;10.90;3.30;;;;;;;12.52;91.08;99532.12;110463;1273;22195;-58
2023/05/15 03:14:41;;;;;;;10.50;3.80;;;;;;;12.51;91.27;99522.50;110444;1267;22237;-59
2023/05/15 03:17:12;;;;;;;8.90;3.30;;;;;;;12.49;91.45;99523.36;110462;1270;22249;-59
2023/05/15 03:19:43;;;;;;;10.30;4.20;;;;;;;12.47;91.37;99521.02;110438;1267;22502;-59
2023/05/15 03:22:14;;;;;;;10.30;3.40;;;;;;;12.45;91.66;99513.13;110460;1274;23084;-59
2023/05/15 03:24:45;;;;;;;9.90;3.50;;;;;;;12.44;91.34;99506.87;110494;1273;22184;-59
2023/05/15 03:27:16;;;;;;;10.10;3.30;;;;;;;12.43;91.72;99506.56;110471;1266;22169;-59
2023/05/15 03:29:49;;;;;;;9.40;3.10;;;;;;;12.42;91.64;99507.99;110439;1267;22335;-57
2023/05/15 03:32:20;;;;;;;13.20;3.40;;;;;;;12.42;91.79;99506.92;110450;1267;22274;-60
2023/05/15 03:34:51;;;;;;;9.20;3.30;;;;;;;12.40;91.99;99500.41;110468;1269;22354;-59
2023/05/15 03:37:22;;;;;;;9.90;3.60;;;;;;;12.37;91.96;99496.02;110453;1274;22194;-58
2023/05/15 03:39:53;;;;;;;9.80;3.10;;;;;;;12.39;92.20;99495.27;110424;1274;22168;-59
2023/05/15 03:42:24;;;;;;;8.20;2.90;;;;;;;12.40;91.86;99492.77;110428;1261;22856;-63
2023/05/15 03:44:56;;;;;;;9.70;3.40;;;;;;;12.42;91.99;99486.71;110439;1267;22924;-59
2023/05/15 03:47:27;;;;;;;8.70;2.80;;;;;;;12.43;91.71;99481.42;110459;1267;22747;-59
2023/05/15 03:49:58;;;;;;;7.90;2.60;;;;;;;12.46;92.14;99481.56;110463;1267;22138;-59
2023/05/15 03:52:29;;;;;;;10.40;2.90;;;;;;;12.45;92.05;99481.06;110474;1267;22147;-59
2023/05/15 03:55:00;;;;;;;9.20;2.90;;;;;;;12.46;91.92;99481.53;110463;1274;23049;-59
2023/05/15 03:57:32;;;;;;;9.70;3.30;;;;;;;12.47;92.11;99479.09;110453;1268;22319;-57
2023/05/15 04:00:08;;;;;;;11.00;2.90;;;;;;;12.50;92.12;99470.88;110392;1273;22283;-60
2023/05/15 04:02:40;;;;;;;11.00;3.50;;;;;;;12.52;92.24;99465.84;110453;1259;22877;-59
2023/05/15 04:05:11;;;;;;;10.60;3.90;;;;;;;12.53;91.91;99466.70;110409;1267;23215;-60
2023/05/15 04:07:42;;;;;;;11.20;3.00;;;;;;;12.56;92.15;99466.30;110467;1260;23071;-60
2023/05/15 04:10:14;;;;;;;13.20;3.70;;;;;;;12.58;92.42;99468.73;110440;1268;23053;-60
2023/05/15 04:12:45;;;;;;;9.70;3.50;;;;;;;12.59;92.56;99469.45;110447;1273;23210;-60
2023/05/15 04:15:20;;;;;;;10.00;3.00;;;;;;;12.59;92.54;99468.98;110445;1270;23113;-60
2023/05/15 04:17:53;;;;;;;9.80;2.90;;;;;;;12.58;92.61;99461.45;110397;1270;22911;-61
2023/05/15 04:20:25;;;;;;;9.40;2.60;;;;;;;12.58;92.49;99463.29;110471;1267;22199;-60
2023/05/15 04:22:56;;;;;;;8.20;2.70;;;;;;;12.60;92.36;99464.86;110420;1265;22307;-61
2023/05/15 04:25:27;;;;;;;8.80;2.90;;;;;;;12.61;92.55;99460.77;110471;1267;22164;-60
2023/05/15 04:27:58;;;;;;;8.00;2.40;;;;;;;12.61;92.50;99458.29;110430;1273;22342;-61
2023/05/15 04:30:30;;;;;;;8.60;2.70;;;;;;;12.61;92.38;99458.14;110463;1267;22215;-60
2023/05/15 04:33:01;;;;;;;9.60;3.50;;;;;;;12.61;92.57;99463.58;110437;1267;22238;-61
2023/05/15 04:35:33;;;;;;;8.10;2.80;;;;;;;12.59;92.55;99459.82;110385;1257;22199;-61
2023/05/15 04:38:05;;;;;;;8.60;3.30;;;;;;;12.60;92.61;99461.80;110407;1267;23324;-62
2023/05/15 04:40:35;;;;;;;9.30;3.70;;;;;;;12.60;92.62;99460.73;106254;1259;22598;-60
2023/05/15 04:43:07;;;;;;;8.50;2.90;;;;;;;12.60;92.50;99458.15;106390;1267;22535;-60
2023/05/15 04:45:38;;;;;;;10.40;3.30;;;;;;;12.60;92.51;99453.40;106509;1264;25358;-60
2023/05/15 04:48:09;;;;;;;10.20;3.60;;;;;;;12.61;92.53;99448.86;110454;1267;22228;-61
2023/05/15 04:50:40;;;;;;;9.60;3.70;;;;;;;12.60;92.68;99448.67;110439;1267;22430;-60
2023/05/15 04:53:11;;;;;;;11.20;4.50;;;;;;;12.60;92.60;99446.38;110392;1267;22277;-61
2023/05/15 04:55:42;;;;;;;12.00;4.40;;;;;;;12.63;92.73;99442.45;110397;1265;22212;-61
2023/05/15 04:58:13;;;;;;;12.50;4.70;;;;;;;12.66;92.98;99438.94;110459;1267;22357;-61
2023/05/15 05:00:43;;;;;;;11.50;4.40;;;;;;;12.68;92.86;99441.42;110452;1266;22216;-61
2023/05/15 05:03:14;;;;;;;10.80;3.70;;;;;;;12.70;92.93;99435.30;110455;1271;22375;-61
2023/05/15 05:05:45;;;;;;;9.30;4.00;;;;;;;12.69;93.00;99429.45;110407;1267;22276;-63
2023/05/15 05:08:16;;;;;;;11.10;4.60;;;;;;;12.67;92.98;99431.20;110432;1268;23367;-62
2023/05/15 05:10:47;;;;;;;12.50;4.70;;;;;;;12.70;93.07;99431.39;110433;1257;22344;-63
2023/05/15 05:13:17;;;;;;;13.50;4.10;;;;;;;12.72;93.22;99428.18;110445;1267;22622;-62
2023/05/15 05:15:48;;;;;;;11.50;4.00;;;;;;;12.73;93.13;99428.98;110444;1266;22163;-63
2023/05/15 05:18:19;;;;;;;12.40;4.40;;;;;;;12.74;93.10;99425.89;110425;1267;22168;-62
2023/05/15 05:20:50;;;;;;;14.40;5.50;;;;;;;12.74;93.11;99419.32;110449;1267;22204;-62
2023/05/15 05:23:21;;;;;;;13.50;4.20;;;;;;;12.76;93.33;99412.89;110412;1268;22317;-62
2023/05/15 05:25:52;;;;;;;12.10;4.80;;;;;;;12.77;93.37;99414.05;110470;1266;22165;-63
2023/05/15 05:28:23;;;;;;;11.20;4.30;;;;;;;12.77;93.37;99410.90;110459;1274;22993;-63
2023/05/15 05:30:54;;;;;;;12.90;4.60;;;;;;;12.80;93.56;99405.70;110478;1270;22249;-63
2023/05/15 05:33:25;;;;;;;9.60;4.40;;;;;;;12.84;93.36;99400.39;110461;1270;22280;-64
2023/05/15 05:35:56;;;;;;;9.70;3.80;;;;;;;12.86;93.23;99395.38;110441;1266;22271;-62
2023/05/15 05:38:27;;;;;;;10.00;3.30;;;;;;;12.88;93.19;99398.70;110459;1266;22179;-62
2023/05/15 05:41:00;;;;;;;12.50;5.10;;;;;;;12.91;93.14;99395.41;110465;1264;22171;-63
2023/05/15 05:43:31;;;;;;;9.50;3.80;;;;;;;12.94;93.00;99395.56;110426;1267;22382;-61
2023/05/15 05:46:03;;;;;;;10.00;3.20;;;;;;;12.95;93.08;99392.30;110482;1274;22195;-61
2023/05/15 05:48:34;;;;;;;12.70;4.10;;;;;;;12.97;93.32;99388.11;110468;1270;22319;-61
2023/05/15 05:51:05;;;;;;;10.60;4.00;;;;;;;13.00;93.34;99388.46;110449;1257;22114;-64
2023/05/15 05:53:36;;;;;;;12.70;4.20;;;;;;;13.03;93.05;99383.86;110482;1267;22205;-63
2023/05/15 05:56:07;;;;;;;14.40;4.40;;;;;;;13.06;92.78;99377.74;110440;1270;22223;-63
2023/05/15 05:58:39;;;;;;;12.20;4.30;;;;;;;13.09;92.70;99371.07;110427;1267;22994;-61
2023/05/15 06:01:10;;;;;;;11.20;4.10;;;;;;;13.12;92.76;99367.80;110453;1274;22192;-61
2023/05/15 06:03:43;;;;;;;11.30;4.40;;;;;;;13.13;92.63;99363.81;110467;1268;22252;-62
2023/05/15 06:06:14;;;;;;;11.90;4.40;;;;;;;13.16;92.78;99362.73;110455;1270;22850;-61
2023/05/15 06:08:45;;;;;;;13.30;4.60;;;;;;;13.19;93.04;99358.38;110470;1266;22471;-61
2023/05/15 06:11:16;;;;;;;11.30;4.00;;;;;;;13.20;93.01;99361.12;110472;1268;22276;-59
2023/05/15 06:13:47;;;;;;;12.00;4.30;;;;;;;13.21;92.79;99357.55;110475;1258;22138;-61
2023/05/15 06:16:18;;;;;;;10.00;4.10;;;;;;;13.23;93.27;99349.02;110495;1274;22195;-61
2023/05/15 06:18:48;;;;;;;17.00;4.00;;;;;;;13.23;93.04;99348.06;110437;1266;22181;-61
2023/05/15 06:21:21;;;;;;;12.20;3.60;;;;;;;13.26;92.89;99346.22;110440;1267;22287;-62
2023/05/15 06:23:51;;;;;;;9.20;3.50;;;;;;;13.27;92.70;99347.48;110440;1261;22859;-61
2023/05/15 06:26:22;;;;;;;12.70;3.70;;;;;;;13.28;92.57;99348.23;110535;1269;22519;-61
2023/05/15 06:28:53;;;;;;;11.00;4.20;;;;;;;13.33;93.40;99345.81;110477;1265;22981;-61
2023/05/15 06:31:24;;;;;;;10.00;3.60;;;;;;;13.36;93.26;99345.08;110483;1273;22150;-62
2023/05/15 06:33:55;;;;;;;11.80;5.10;;;;;;;13.37;93.02;99348.02;110487;1269;22361;-63
2023/05/15 06:36:25;;;;;;;12.50;4.70;;;;;;;13.40;93.83;99340.10;110454;1261;22348;-62
2023/05/15 06:38:56;;;;;;;10.60;3.90;;;;;;;13.43;93.77;99345.23;110490;1267;22152;-61
2023/05/15 06:41:27;;;;;;;10.20;3.80;;;;;;;13.46;93.64;99339.14;110421;1267;22181;-61
2023/05/15 06:43:58;;;;;;;10.40;4.10;;;;;;;13.49;93.62;99339.38;110503;1262;22215;-66
2023/05/15 06:46:29;;;;;;;14.60;5.70;;;;;;;13.51;94.19;99332.07;110488;1273;22408;-65
2023/05/15 06:49:00;;;;;;;12.60;4.90;;;;;;;13.52;94.30;99333.43;110448;1274;22169;-65
2023/05/15 06:51:31;;;;;;;9.20;3.90;;;;;;;13.55;94.82;99329.73;110482;1270;23005;-61
2023/05/15 06:54:02;;;;;;;12.90;4.80;;;;;;;13.57;94.75;99330.91;110480;1266;22178;-64
2023/05/15 06:56:33;;;;;;;11.50;4.40;;;;;;;13.57;94.91;99333.75;110457;1274;22378;-62
2023/05/15 06:59:04;;;;;;;12.10;4.50;;;;;;;13.58;94.34;99334.20;110422;1259;22308;-62
2023/05/15 07:01:34;;;;;;;13.10;5.00;;;;;;;13.60;94.56;99330.98;110466;1268;23458;-61
2023/05/15 07:04:06;;;;;;;10.90;4.20;;;;;;;13.63;94.82;99328.31;110473;1268;22171;-61
2023/05/15 07:06:37;;;;;;;12.70;5.00;;;;;;;13.67;94.93;99323.84;110512;1267;23242;-62
2023/05/15 07:09:08;;;;;;;13.30;4.90;;;;;;;13.69;94.82;99320.45;110525;1264;22162;-61
2023/05/15 07:11:40;;;;;;;13.70;6.10;;;;;;;13.72;95.15;99319.25;110439;1267;22475;-62
2023/05/15 07:14:11;;;;;;;10.50;4.40;;;;;;;13.75;94.88;99318.16;110482;1267;22372;-65
2023/05/15 07:16:42;;;;;;;12.70;5.10;;;;;;;13.77;95.03;99316.88;110504;1265;22377;-61
2023/05/15 07:19:13;;;;;;;13.20;5.40;;;;;;;13.79;95.23;99313.54;110484;1274;23069;-61
2023/05/15 07:21:44;;;;;;;13.50;5.00;;;;;;;13.83;95.07;99312.89;110479;1269;22956;-63
2023/05/15 07:24:15;;;;;;;13.20;5.30;;;;;;;13.86;95.14;99314.09;110496;1267;22190;-61
2023/05/15 07:26:46;;;;;;;10.90;5.20;;;;;;;13.90;95.40;99314.15;110465;1267;22887;-61
2023/05/15 07:29:17;;;;;;;12.10;5.30;;;;;;;13.95;95.65;99312.94;110465;1270;22382;-61
2023/05/15 07:31:48;;;;;;;12.70;4.80;;;;;;;14.01;95.55;99312.73;110460;1265;22903;-61
2023/05/15 07:34:19;;;;;;;10.80;4.90;;;;;;;14.04;95.75;99315.18;110498;1273;23076;-65
2023/05/15 07:36:50;;;;;;;12.50;5.40;;;;;;;14.06;95.10;99316.34;110506;1261;23021;-61
2023/05/15 07:39:21;;;;;;;13.70;5.10;;;;;;;14.07;94.93;99311.02;110504;1258;22219;-60
2023/05/15 07:41:52;;;;;;;12.50;4.30;;;;;;;14.09;95.02;99310.40;107607;1268;25550;-60
2023/05/15 07:44:22;;;;;;;11.00;4.50;;;;;;;14.11;95.09;99313.73;106736;1263;22645;-61
2023/05/15 07:46:55;;;;;;;9.40;4.00;;;;;;;14.13;94.74;99308.11;106831;1267;22517;-59
2023/05/15 07:49:26;;;;;;;14.20;5.10;;;;;;;14.11;95.12;99307.98;106882;1274;25396;-61
2023/05/15 07:51:57;;;;;;;10.80;4.20;;;;;;;14.13;95.55;99308.92;106876;1258;22611;-59
2023/05/15 07:54:30;;;;;;;14.20;5.60;;;;;;;14.17;95.78;99306.95;110464;1268;22226;-62
2023/05/15 07:57:01;;;;;;;11.10;3.20;;;;;;;14.24;96.20;99311.37;110473;1268;22171;-61
2023/05/15 07:59:32;;;;;;;9.70;3.90;;;;;;;14.26;95.47;99304.00;110466;1268;22363;-61
2023/05/15 08:02:03;;;;;;;10.10;4.10;;;;;;;14.30;95.59;99304.33;110450;1268;22936;-61
2023/05/15 08:04:33;;;;;;;10.30;4.30;;;;;;;14.36;95.65;99303.87;110458;1266;23134;-60
2023/05/15 08:07:04;;;;;;;8.00;3.20;;;;;;;14.38;95.19;99302.46;110448;1274;22108;-62
2023/05/15 08:09:35;;;;;;;10.50;4.20;;;;;;;14.46;95.95;99304.62;110477;1266;23223;-65
2023/05/15 08:12:19;;;;;;;9.00;3.30;;;;;;;14.54;96.11;99301.72;110502;1268;22197;-60
2023/05/15 08:14:52;;;;;;;13.00;3.80;;;;;;;14.58;95.40;99299.38;110449;1267;22157;-60
2023/05/15 08:17:24;;;;;;;7.80;2.60;;;;;;;14.66;95.98;99295.38;110523;1268;22357;-62
2023/05/15 08:19:55;;;;;;;9.90;4.10;;;;;;;14.69;94.84;99293.31;110478;1258;22151;-62
2023/05/15 08:22:29;;;;;;;9.40;4.10;;;;;;;14.73;95.78;99294.27;110507;1274;22170;-61
2023/05/15 08:25:02;;;;;;;10.80;4.30;;;;;;;14.82;96.36;99297.07;110466;1274;22852;-61
2023/05/15 08:27:33;;;;;;;8.00;3.20;;;;;;;14.92;96.12;99300.16;110487;1267;22434;-62
2023/05/15 08:30:05;;;;;;;9.60;3.20;;;;;;;15.00;96.16;99296.73;110473;1263;22176;-61
2023/05/15 08:32:36;;;;;;;8.30;3.90;;;;;;;15.09;96.16;99298.89;110447;1269;22339;-61
2023/05/15 08:35:08;;;;;;;7.30;3.00;;;;;;;15.13;95.76;99296.39;110475;1268;22986;-62
2023/05/15 08:37:39;;;;;;;9.60;3.70;;;;;;;15.13;94.92;99295.15;110452;1267;22475;-61
2023/05/15 08:40:12;;;;;;;8.50;3.20;;;;;;;15.13;94.66;99294.17;110502;1274;22883;-61
2023/05/15 08:42:45;;;;;;;7.80;2.70;;;;;;;15.11;94.28;99291.20;110506;1271;22236;-61
2023/05/15 08:45:17;;;;;;;7.50;2.80;;;;;;;15.09;94.46;99292.30;110469;1268;22335;-61
2023/05/15 08:47:47;;;;;;;7.30;3.00;;;;;;;15.10;94.40;99289.58;110474;1268;22139;-62
2023/05/15 08:50:19;;;;;;;8.10;3.30;;;;;;;15.14;94.75;99291.58;110470;1267;22363;-61
2023/05/15 08:52:52;;;;;;;10.50;3.50;;;;;;;15.19;94.73;99296.80;110461;1259;22202;-62
2023/05/15 08:55:22;;;;;;;8.40;2.70;;;;;;;15.21;93.95;99294.89;110475;1273;22698;-61
2023/05/15 08:57:54;;;;;;;9.90;3.60;;;;;;;15.19;93.57;99293.56;110530;1259;22200;-61
2023/05/15 09:00:26;;;;;;;12.30;2.90;;;;;;;15.20;93.70;99294.85;110459;1268;22159;-61
2023/05/15 09:02:59;;;;;;;7.20;3.20;;;;;;;15.18;93.35;99296.41;110476;1264;22221;-61
2023/05/15 09:05:30;;;;;;;7.80;3.30;;;;;;;15.17;93.45;99297.29;110507;1268;22997;-62
2023/05/15 09:08:06;;;;;;;8.10;3.20;;;;;;;15.15;93.37;99291.75;110479;1270;22201;-61
2023/05/15 09:10:38;;;;;;;14.00;4.60;;;;;;;15.07;92.92;99290.63;110457;1267;22349;-61
2023/05/15 09:13:11;;;;;;;8.60;3.70;;;;;;;15.06;93.27;99290.20;110466;1267;22150;-61
2023/05/15 09:15:41;;;;;;;8.60;3.80;;;;;;;15.06;93.19;99287.45;110470;1268;23175;-61
2023/05/15 09:18:14;;;;;;;13.10;4.40;;;;;;;15.06;93.29;99284.88;110446;1268;22893;-61
2023/05/15 09:20:45;;;;;;;11.00;4.50;;;;;;;15.06;93.36;99284.77;110483;1267;22980;-63
2023/05/15 09:23:27;;;;;;;10.90;4.60;;;;;;;15.04;93.37;99287.62;110470;1267;22184;-61
2023/05/15 09:25:59;;;;;;;10.30;4.70;;;;;;;15.05;93.49;99286.47;110449;1267;22246;-61
2023/05/15 09:28:32;;;;;;;9.80;4.50;;;;;;;15.04;93.28;99289.20;110482;1273;22281;-61
2023/05/15 09:31:04;;;;;;;10.90;4.60;;;;;;;15.03;92.99;99291.45;110450;1267;22280;-61
2023/05/15 09:33:38;;;;;;;12.50;6.10;;;;;;;15.02;92.99;99288.81;110459;1268;22249;-62
2023/05/15 09:36:09;;;;;;;8.80;4.30;;;;;;;15.02;93.07;99284.84;110468;1267;23057;-62
2023/05/15 09:38:46;;;;;;;12.10;4.50;;;;;;;14.99;93.15;99278.38;110513;1268;22860;-61
2023/05/15 09:41:26;;;;;;;12.00;4.70;;;;;;;14.97;93.14;99280.73;110440;1268;22219;-61
2023/05/15 09:43:57;;;;;;;12.00;3.90;;;;;;;14.98;93.28;99280.30;110469;1268;22400;-61
2023/05/15 09:46:29;;;;;;;10.90;5.20;;;;;;;14.98;93.29;99275.73;110504;1274;22779;-65
2023/05/15 09:49:01;;;;;;;13.30;5.40;;;;;;;15.02;93.44;99281.73;110521;1273;22252;-65
2023/05/15 09:51:32;;;;;;;14.20;6.60;;;;;;;15.07;93.72;99283.63;110502;1274;22319;-61
2023/05/15 09:54:03;;;;;;;12.50;5.80;;;;;;;15.16;94.42;99286.84;110504;1271;22190;-62
2023/05/15 09:56:34;;;;;;;12.80;6.10;;;;;;;15.23;94.39;99282.88;107081;1270;25615;-61
2023/05/15 09:59:05;;;;;;;13.10;6.00;;;;;;;15.33;94.81;99286.21;110473;1267;22360;-61
2023/05/15 10:01:37;;;;;;;12.60;5.70;;;;;;;15.45;95.05;99286.11;110447;1259;22423;-61
2023/05/15 10:04:08;;;;;;;11.80;5.50;;;;;;;15.58;95.24;99283.77;110474;1274;22357;-62
2023/05/15 10:06:41;;;;;;;13.00;6.50;;;;;;;15.69;94.54;99285.61;107736;1270;24322;-62
2023/05/15 10:09:13;;;;;;;14.10;6.70;;;;;;;15.76;94.21;99284.67;110450;1270;23091;-62
2023/05/15 10:11:47;;;;;;;12.50;6.40;;;;;;;15.83;94.24;99281.08;110485;1258;22162;-66
2023/05/15 10:14:18;;;;;;;16.30;6.20;;;;;;;15.86;93.43;99275.61;110441;1268;23186;-62
2023/05/15 10:16:50;;;;;;;12.40;5.70;;;;;;;15.92;93.79;99274.77;110459;1265;22297;-62
2023/05/15 10:19:25;;;;;;;11.80;4.60;;;;;;;15.98;93.69;99277.30;110503;1274;22181;-61
2023/05/15 10:21:59;;;;;;;12.70;4.20;;;;;;;16.03;92.34;99271.71;110515;1270;22131;-61
2023/05/15 10:24:32;;;;;;;11.40;4.10;;;;;;;16.05;92.00;99269.71;108946;1267;23150;-61
2023/05/15 10:27:05;;;;;;;11.40;4.80;;;;;;;16.09;91.95;99272.70;106522;1263;25297;-61
2023/05/15 10:29:38;;;;;;;11.10;4.30;;;;;;;16.12;91.36;99274.96;110499;1259;22255;-61
2023/05/15 10:32:09;;;;;;;10.60;4.10;;;;;;;16.10;90.62;99272.33;108370;1268;22592;-62
2023/05/15 10:34:41;;;;;;;9.70;3.60;;;;;;;16.08;90.34;99278.37;110480;1267;23054;-62
2023/05/15 10:37:13;;;;;;;11.80;5.60;;;;;;;16.05;90.17;99279.66;110490;1266;22874;-62
2023/05/15 10:39:47;;;;;;;10.10;4.20;;;;;;;16.07;90.91;99276.28;108356;1268;22526;-62
2023/05/15 10:42:19;;;;;;;11.80;5.40;;;;;;;16.13;90.82;99272.54;110492;1270;22122;-62
2023/05/15 10:44:51;;;;;;;11.00;5.30;;;;;;;16.20;91.47;99274.75;109697;1266;22544;-62
2023/05/15 10:47:22;;;;;;;13.10;4.80;;;;;;;16.31;91.54;99279.45;110461;1268;22192;-63
2023/05/15 10:49:53;;;;;;;10.40;4.30;;;;;;;16.37;90.42;99282.73;110463;1266;22587;-62
2023/05/15 10:52:24;;;;;;;11.30;4.30;;;;;;;16.40;89.83;99281.34;108065;1274;22540;-62
2023/05/15 10:54:55;;;;;;;10.90;4.30;;;;;;;16.39;89.22;99279.86;110492;1274;22959;-62
2023/05/15 10:57:28;;;;;;;11.70;5.10;;;;;;;16.43;89.74;99283.98;110469;1270;22170;-62
2023/05/15 11:00:01;;;;;;;12.00;4.20;;;;;;;16.52;89.60;99277.69;109748;1268;22651;-62
2023/05/15 11:02:38;;;;;;;10.10;4.70;;;;;;;16.65;89.48;99274.04;108423;1271;22602;-62
2023/05/15 11:05:12;;;;;;;9.90;4.50;;;;;;;16.72;88.94;99275.53;110488;1268;22174;-61
2023/05/15 11:07:45;;;;;;;9.50;3.80;;;;;;;16.73;87.78;99276.59;109305;1252;25317;-61
2023/05/15 11:10:39;;;;;;;11.40;3.50;;;;;;;16.61;87.15;99273.52;107870;1267;24280;-62
2023/05/15 11:13:10;;;;;;;7.10;2.60;;;;;;;16.54;87.48;99271.09;110440;1274;22148;-62
2023/05/15 11:15:45;;;;;;;11.60;3.30;;;;;;;16.54;86.66;99267.70;110461;1266;22145;-63
2023/05/15 11:18:16;;;;;;;9.50;2.70;;;;;;;16.54;87.43;99264.39;110472;1270;22159;-63
2023/05/15 11:21:09;;;;;;;6.50;1.70;;;;;;;16.63;87.67;99263.73;110423;1265;22293;-63
2023/05/15 11:23:41;;;;;;;5.50;1.70;;;;;;;16.69;85.61;99249.98;110507;1268;22205;-62
2023/05/15 11:26:15;;;;;;;5.20;1.40;;;;;;;16.75;86.06;99248.77;108190;1268;25373;-61
2023/05/15 11:28:46;;;;;;;6.00;1.60;;;;;;;16.87;86.76;99248.87;110489;1268;22158;-62
2023/05/15 11:31:17;;;;;;;5.90;2.00;;;;;;;16.90;84.89;99247.14;110491;1273;22282;-62
2023/05/15 11:33:51;;;;;;;6.30;2.30;;;;;;;16.89;84.90;99247.73;110514;1271;22286;-62
2023/05/15 11:36:25;;;;;;;6.70;2.20;;;;;;;16.94;85.12;99241.11;110483;1264;22432;-62
2023/05/15 11:38:57;;;;;;;9.80;2.90;;;;;;;17.04;85.02;99239.96;110486;1267;23129;-62
2023/05/15 11:41:32;;;;;;;8.60;3.00;;;;;;;17.11;84.74;99240.38;108456;1268;22717;-61
2023/05/15 11:44:03;;;;;;;7.10;2.30;;;;;;;17.12;82.98;99236.92;106527;1259;26575;-61